sensor_id;sensor_type;location;lat;lon;timestamp;P1;durP1;ratioP1;P2;durP2;ratioP2
5833;SDS011;2943;48.012;10.968;2023-04-24T00:01:15;2.00;;;1.70;;
5833;SDS011;2943;48.012;10.968;2023-04-24T00:03:44;1.40;;;1.30;;
5833;SDS011;2943;48.012;10.968;2023-04-24T00:06:11;1.40;;;1.30;;
5833;SDS011;2943;48.012;10.968;2023-04-24T00:08:38;1.77;;;1.67;;
5833;SDS011;2943;48.012;10.968;2023-04-24T00:11:05;1.33;;;1.23;;
5833;SDS011;2943;48.012;10.968;2023-04-24T00:13:32;1.50;;;1.40;;
5833;SDS011;2943;48.012;10.968;2023-04-24T00:15:59;1.37;;;1.27;;
5833;SDS011;2943;48.012;10.968;2023-04-24T00:18:27;2.10;;;1.60;;
5833;SDS011;2943;48.012;10.968;2023-04-24T00:20:54;1.40;;;1.30;;
5833;SDS011;2943;48.012;10.968;2023-04-24T00:23:21;2.57;;;1.33;;
5833;SDS011;2943;48.012;10.968;2023-04-24T00:25:48;2.00;;;1.53;;
5833;SDS011;2943;48.012;10.968;2023-04-24T00:28:15;1.50;;;1.40;;
5833;SDS011;2943;48.012;10.968;2023-04-24T00:30:42;2.73;;;1.47;;
5833;SDS011;2943;48.012;10.968;2023-04-24T00:33:09;1.50;;;1.40;;
5833;SDS011;2943;48.012;10.968;2023-04-24T00:35:38;5.83;;;1.40;;
5833;SDS011;2943;48.012;10.968;2023-04-24T00:38:05;2.08;;;1.40;;
5833;SDS011;2943;48.012;10.968;2023-04-24T00:40:32;1.37;;;1.23;;
5833;SDS011;2943;48.012;10.968;2023-04-24T00:42:59;2.30;;;1.30;;
5833;SDS011;2943;48.012;10.968;2023-04-24T00:45:26;1.20;;;1.10;;
5833;SDS011;2943;48.012;10.968;2023-04-24T00:47:53;1.40;;;1.30;;
5833;SDS011;2943;48.012;10.968;2023-04-24T00:50:20;1.43;;;1.33;;
5833;SDS011;2943;48.012;10.968;2023-04-24T00:52:49;1.70;;;1.50;;
5833;SDS011;2943;48.012;10.968;2023-04-24T00:55:16;1.30;;;1.20;;
5833;SDS011;2943;48.012;10.968;2023-04-24T00:57:43;2.30;;;1.30;;
5833;SDS011;2943;48.012;10.968;2023-04-24T01:00:11;1.23;;;1.20;;
5833;SDS011;2943;48.012;10.968;2023-04-24T01:02:40;2.07;;;1.30;;
5833;SDS011;2943;48.012;10.968;2023-04-24T01:05:10;1.30;;;1.20;;
5833;SDS011;2943;48.012;10.968;2023-04-24T01:07:38;3.43;;;1.37;;
5833;SDS011;2943;48.012;10.968;2023-04-24T01:10:10;1.37;;;1.27;;
5833;SDS011;2943;48.012;10.968;2023-04-24T01:12:38;2.90;;;1.10;;
5833;SDS011;2943;48.012;10.968;2023-04-24T01:15:06;1.70;;;1.37;;
5833;SDS011;2943;48.012;10.968;2023-04-24T01:17:34;7.40;;;1.93;;
5833;SDS011;2943;48.012;10.968;2023-04-24T01:20:01;1.88;;;1.40;;
5833;SDS011;2943;48.012;10.968;2023-04-24T01:22:32;1.73;;;1.50;;
5833;SDS011;2943;48.012;10.968;2023-04-24T01:25:00;1.67;;;1.10;;
5833;SDS011;2943;48.012;10.968;2023-04-24T01:27:27;1.50;;;1.40;;
5833;SDS011;2943;48.012;10.968;2023-04-24T01:29:54;2.20;;;1.77;;
5833;SDS011;2943;48.012;10.968;2023-04-24T01:32:21;3.90;;;1.58;;
5833;SDS011;2943;48.012;10.968;2023-04-24T01:34:48;2.53;;;1.43;;
5833;SDS011;2943;48.012;10.968;2023-04-24T01:37:16;1.40;;;1.30;;
5833;SDS011;2943;48.012;10.968;2023-04-24T01:39:45;1.40;;;1.30;;
5833;SDS011;2943;48.012;10.968;2023-04-24T01:42:12;2.97;;;1.93;;
5833;SDS011;2943;48.012;10.968;2023-04-24T01:44:40;1.70;;;1.60;;
5833;SDS011;2943;48.012;10.968;2023-04-24T01:47:08;1.80;;;1.70;;
5833;SDS011;2943;48.012;10.968;2023-04-24T01:49:35;1.50;;;1.40;;
5833;SDS011;2943;48.012;10.968;2023-04-24T01:52:04;1.55;;;1.45;;
5833;SDS011;2943;48.012;10.968;2023-04-24T01:54:31;1.40;;;1.30;;
5833;SDS011;2943;48.012;10.968;2023-04-24T01:56:59;1.87;;;1.60;;
5833;SDS011;2943;48.012;10.968;2023-04-24T01:59:27;1.50;;;1.40;;
5833;SDS011;2943;48.012;10.968;2023-04-24T02:01:54;1.60;;;1.40;;
5833;SDS011;2943;48.012;10.968;2023-04-24T02:04:21;2.80;;;1.40;;
5833;SDS011;2943;48.012;10.968;2023-04-24T02:06:48;1.57;;;1.47;;
5833;SDS011;2943;48.012;10.968;2023-04-24T02:09:15;1.80;;;1.47;;
5833;SDS011;2943;48.012;10.968;2023-04-24T02:11:42;2.10;;;1.43;;
5833;SDS011;2943;48.012;10.968;2023-04-24T02:14:11;1.67;;;1.57;;
5833;SDS011;2943;48.012;10.968;2023-04-24T02:16:38;2.43;;;1.23;;
5833;SDS011;2943;48.012;10.968;2023-04-24T02:19:05;2.07;;;1.40;;
5833;SDS011;2943;48.012;10.968;2023-04-24T02:21:31;1.50;;;1.40;;
5833;SDS011;2943;48.012;10.968;2023-04-24T02:23:58;2.13;;;1.60;;
5833;SDS011;2943;48.012;10.968;2023-04-24T02:26:26;1.70;;;1.60;;
5833;SDS011;2943;48.012;10.968;2023-04-24T02:28:52;5.55;;;1.58;;
5833;SDS011;2943;48.012;10.968;2023-04-24T02:31:21;2.00;;;1.60;;
5833;SDS011;2943;48.012;10.968;2023-04-24T02:33:48;2.03;;;1.92;;
5833;SDS011;2943;48.012;10.968;2023-04-24T02:36:15;2.00;;;1.70;;
5833;SDS011;2943;48.012;10.968;2023-04-24T02:38:42;2.27;;;1.57;;
5833;SDS011;2943;48.012;10.968;2023-04-24T02:41:09;2.13;;;1.63;;
5833;SDS011;2943;48.012;10.968;2023-04-24T02:43:36;2.93;;;1.60;;
5833;SDS011;2943;48.012;10.968;2023-04-24T02:46:03;2.43;;;2.17;;
5833;SDS011;2943;48.012;10.968;2023-04-24T02:50:59;2.90;;;1.60;;
5833;SDS011;2943;48.012;10.968;2023-04-24T02:53:26;1.60;;;1.50;;
5833;SDS011;2943;48.012;10.968;2023-04-24T02:55:55;2.70;;;1.70;;
5833;SDS011;2943;48.012;10.968;2023-04-24T02:58:22;2.20;;;1.73;;
5833;SDS011;2943;48.012;10.968;2023-04-24T03:00:49;1.60;;;1.50;;
5833;SDS011;2943;48.012;10.968;2023-04-24T03:03:19;2.83;;;1.93;;
5833;SDS011;2943;48.012;10.968;2023-04-24T03:05:47;1.83;;;1.73;;
5833;SDS011;2943;48.012;10.968;2023-04-24T03:08:15;4.20;;;1.63;;
5833;SDS011;2943;48.012;10.968;2023-04-24T03:10:42;2.00;;;1.57;;
5833;SDS011;2943;48.012;10.968;2023-04-24T03:13:09;1.70;;;1.60;;
5833;SDS011;2943;48.012;10.968;2023-04-24T03:15:36;1.70;;;1.60;;
5833;SDS011;2943;48.012;10.968;2023-04-24T03:18:03;3.20;;;1.67;;
5833;SDS011;2943;48.012;10.968;2023-04-24T03:20:30;3.27;;;1.87;;
5833;SDS011;2943;48.012;10.968;2023-04-24T03:23:00;1.50;;;1.30;;
5833;SDS011;2943;48.012;10.968;2023-04-24T03:25:28;1.43;;;1.33;;
5833;SDS011;2943;48.012;10.968;2023-04-24T03:27:55;1.50;;;1.40;;
5833;SDS011;2943;48.012;10.968;2023-04-24T03:30:21;3.00;;;1.80;;
5833;SDS011;2943;48.012;10.968;2023-04-24T03:32:48;4.53;;;1.63;;
5833;SDS011;2943;48.012;10.968;2023-04-24T03:35:15;1.50;;;1.40;;
5833;SDS011;2943;48.012;10.968;2023-04-24T03:37:42;1.77;;;1.57;;
5833;SDS011;2943;48.012;10.968;2023-04-24T03:40:11;2.08;;;1.40;;
5833;SDS011;2943;48.012;10.968;2023-04-24T03:42:38;2.50;;;1.37;;
5833;SDS011;2943;48.012;10.968;2023-04-24T03:45:05;1.50;;;1.40;;
5833;SDS011;2943;48.012;10.968;2023-04-24T03:47:33;1.50;;;1.40;;
5833;SDS011;2943;48.012;10.968;2023-04-24T03:50:01;1.57;;;1.47;;
5833;SDS011;2943;48.012;10.968;2023-04-24T03:52:28;2.40;;;1.83;;
5833;SDS011;2943;48.012;10.968;2023-04-24T03:54:55;1.83;;;1.70;;
5833;SDS011;2943;48.012;10.968;2023-04-24T03:57:23;1.40;;;1.30;;
5833;SDS011;2943;48.012;10.968;2023-04-24T03:59:53;1.47;;;1.37;;
5833;SDS011;2943;48.012;10.968;2023-04-24T04:02:20;1.23;;;1.13;;
5833;SDS011;2943;48.012;10.968;2023-04-24T04:04:47;4.07;;;1.30;;
5833;SDS011;2943;48.012;10.968;2023-04-24T04:07:14;1.50;;;1.40;;
5833;SDS011;2943;48.012;10.968;2023-04-24T04:09:41;4.10;;;1.43;;
5833;SDS011;2943;48.012;10.968;2023-04-24T04:12:08;1.87;;;1.27;;
5833;SDS011;2943;48.012;10.968;2023-04-24T04:14:36;1.77;;;1.50;;
5833;SDS011;2943;48.012;10.968;2023-04-24T04:17:03;3.97;;;1.45;;
5833;SDS011;2943;48.012;10.968;2023-04-24T04:19:30;1.43;;;1.13;;
5833;SDS011;2943;48.012;10.968;2023-04-24T04:21:57;1.10;;;1.00;;
5833;SDS011;2943;48.012;10.968;2023-04-24T04:24:24;1.80;;;1.20;;
5833;SDS011;2943;48.012;10.968;2023-04-24T04:26:52;1.43;;;1.33;;
5833;SDS011;2943;48.012;10.968;2023-04-24T04:29:21;1.50;;;1.40;;
5833;SDS011;2943;48.012;10.968;2023-04-24T04:31:50;1.57;;;1.47;;
5833;SDS011;2943;48.012;10.968;2023-04-24T04:34:17;1.33;;;1.23;;
5833;SDS011;2943;48.012;10.968;2023-04-24T04:36:44;1.40;;;1.30;;
5833;SDS011;2943;48.012;10.968;2023-04-24T04:39:12;1.93;;;1.30;;
5833;SDS011;2943;48.012;10.968;2023-04-24T04:41:40;1.67;;;1.30;;
5833;SDS011;2943;48.012;10.968;2023-04-24T04:44:07;1.30;;;1.20;;
5833;SDS011;2943;48.012;10.968;2023-04-24T04:46:34;1.70;;;1.60;;
5833;SDS011;2943;48.012;10.968;2023-04-24T04:49:04;1.17;;;1.13;;
5833;SDS011;2943;48.012;10.968;2023-04-24T04:51:33;1.43;;;1.33;;
5833;SDS011;2943;48.012;10.968;2023-04-24T04:54:00;1.50;;;1.40;;
5833;SDS011;2943;48.012;10.968;2023-04-24T04:56:28;2.50;;;1.70;;
5833;SDS011;2943;48.012;10.968;2023-04-24T04:58:55;1.67;;;1.37;;
5833;SDS011;2943;48.012;10.968;2023-04-24T05:01:24;1.50;;;1.40;;
5833;SDS011;2943;48.012;10.968;2023-04-24T05:03:52;1.67;;;1.50;;
5833;SDS011;2943;48.012;10.968;2023-04-24T05:06:21;1.60;;;1.50;;
5833;SDS011;2943;48.012;10.968;2023-04-24T05:08:48;1.80;;;1.70;;
5833;SDS011;2943;48.012;10.968;2023-04-24T05:11:16;4.40;;;2.10;;
5833;SDS011;2943;48.012;10.968;2023-04-24T05:13:43;1.47;;;1.37;;
5833;SDS011;2943;48.012;10.968;2023-04-24T05:16:10;2.33;;;2.07;;
5833;SDS011;2943;48.012;10.968;2023-04-24T05:18:37;1.43;;;1.33;;
5833;SDS011;2943;48.012;10.968;2023-04-24T05:21:05;2.00;;;1.90;;
5833;SDS011;2943;48.012;10.968;2023-04-24T05:23:33;1.60;;;1.50;;
5833;SDS011;2943;48.012;10.968;2023-04-24T05:26:00;1.60;;;1.50;;
5833;SDS011;2943;48.012;10.968;2023-04-24T05:28:27;1.90;;;1.70;;
5833;SDS011;2943;48.012;10.968;2023-04-24T05:30:54;2.30;;;1.33;;
5833;SDS011;2943;48.012;10.968;2023-04-24T05:33:21;1.40;;;1.30;;
5833;SDS011;2943;48.012;10.968;2023-04-24T05:35:48;1.37;;;1.27;;
5833;SDS011;2943;48.012;10.968;2023-04-24T05:38:15;1.30;;;1.20;;
5833;SDS011;2943;48.012;10.968;2023-04-24T05:40:44;3.63;;;1.30;;
5833;SDS011;2943;48.012;10.968;2023-04-24T05:43:11;2.60;;;1.30;;
5833;SDS011;2943;48.012;10.968;2023-04-24T05:45:38;3.23;;;1.30;;
5833;SDS011;2943;48.012;10.968;2023-04-24T05:48:05;2.13;;;1.57;;
5833;SDS011;2943;48.012;10.968;2023-04-24T05:50:32;1.50;;;1.40;;
5833;SDS011;2943;48.012;10.968;2023-04-24T05:52:59;1.20;;;1.10;;
5833;SDS011;2943;48.012;10.968;2023-04-24T05:55:27;1.77;;;1.40;;
5833;SDS011;2943;48.012;10.968;2023-04-24T05:57:55;2.00;;;1.43;;
5833;SDS011;2943;48.012;10.968;2023-04-24T06:00:23;1.33;;;1.23;;
5833;SDS011;2943;48.012;10.968;2023-04-24T06:02:50;1.33;;;1.23;;
5833;SDS011;2943;48.012;10.968;2023-04-24T06:05:17;1.30;;;1.20;;
5833;SDS011;2943;48.012;10.968;2023-04-24T06:07:44;1.30;;;1.20;;
5833;SDS011;2943;48.012;10.968;2023-04-24T06:10:11;1.10;;;1.10;;
5833;SDS011;2943;48.012;10.968;2023-04-24T06:12:38;1.23;;;1.13;;
5833;SDS011;2943;48.012;10.968;2023-04-24T06:15:07;2.00;;;1.23;;
5833;SDS011;2943;48.012;10.968;2023-04-24T06:17:35;3.47;;;1.30;;
5833;SDS011;2943;48.012;10.968;2023-04-24T06:20:02;1.57;;;1.47;;
5833;SDS011;2943;48.012;10.968;2023-04-24T06:22:31;1.50;;;1.20;;
5833;SDS011;2943;48.012;10.968;2023-04-24T06:24:57;1.13;;;1.13;;
5833;SDS011;2943;48.012;10.968;2023-04-24T06:27:25;1.20;;;1.10;;
5833;SDS011;2943;48.012;10.968;2023-04-24T06:29:52;2.33;;;1.30;;
5833;SDS011;2943;48.012;10.968;2023-04-24T06:32:22;1.30;;;1.00;;
5833;SDS011;2943;48.012;10.968;2023-04-24T06:34:50;2.80;;;1.10;;
5833;SDS011;2943;48.012;10.968;2023-04-24T06:37:18;1.40;;;1.30;;
5833;SDS011;2943;48.012;10.968;2023-04-24T06:39:45;1.80;;;1.07;;
5833;SDS011;2943;48.012;10.968;2023-04-24T06:42:12;1.20;;;1.10;;
5833;SDS011;2943;48.012;10.968;2023-04-24T06:44:39;3.20;;;1.10;;
5833;SDS011;2943;48.012;10.968;2023-04-24T06:47:06;1.37;;;1.23;;
5833;SDS011;2943;48.012;10.968;2023-04-24T06:49:36;1.43;;;1.33;;
5833;SDS011;2943;48.012;10.968;2023-04-24T06:52:04;1.13;;;1.10;;
5833;SDS011;2943;48.012;10.968;2023-04-24T06:54:31;1.20;;;1.20;;
5833;SDS011;2943;48.012;10.968;2023-04-24T06:56:58;1.33;;;1.23;;
5833;SDS011;2943;48.012;10.968;2023-04-24T06:59:27;1.23;;;1.13;;
5833;SDS011;2943;48.012;10.968;2023-04-24T07:01:54;1.50;;;1.40;;
5833;SDS011;2943;48.012;10.968;2023-04-24T07:04:22;1.10;;;1.00;;
5833;SDS011;2943;48.012;10.968;2023-04-24T07:06:51;1.43;;;1.33;;
5833;SDS011;2943;48.012;10.968;2023-04-24T07:09:20;1.93;;;1.20;;
5833;SDS011;2943;48.012;10.968;2023-04-24T07:11:49;1.30;;;1.10;;
5833;SDS011;2943;48.012;10.968;2023-04-24T07:14:16;1.60;;;1.50;;
5833;SDS011;2943;48.012;10.968;2023-04-24T07:16:43;2.15;;;1.10;;
5833;SDS011;2943;48.012;10.968;2023-04-24T07:19:11;1.20;;;1.00;;
5833;SDS011;2943;48.012;10.968;2023-04-24T07:21:38;1.13;;;1.03;;
5833;SDS011;2943;48.012;10.968;2023-04-24T07:24:07;1.43;;;1.30;;
5833;SDS011;2943;48.012;10.968;2023-04-24T07:26:36;1.30;;;1.20;;
5833;SDS011;2943;48.012;10.968;2023-04-24T07:29:04;2.53;;;1.20;;
5833;SDS011;2943;48.012;10.968;2023-04-24T07:31:31;1.20;;;1.10;;
5833;SDS011;2943;48.012;10.968;2023-04-24T07:33:58;1.20;;;1.13;;
5833;SDS011;2943;48.012;10.968;2023-04-24T07:36:25;1.30;;;1.30;;
5833;SDS011;2943;48.012;10.968;2023-04-24T07:38:53;1.30;;;1.20;;
5833;SDS011;2943;48.012;10.968;2023-04-24T07:41:22;2.07;;;1.20;;
5833;SDS011;2943;48.012;10.968;2023-04-24T07:43:49;1.20;;;1.10;;
5833;SDS011;2943;48.012;10.968;2023-04-24T07:46:16;1.33;;;1.00;;
5833;SDS011;2943;48.012;10.968;2023-04-24T07:48:43;1.13;;;1.10;;
5833;SDS011;2943;48.012;10.968;2023-04-24T07:51:11;1.30;;;1.20;;
5833;SDS011;2943;48.012;10.968;2023-04-24T07:53:38;1.00;;;1.00;;
5833;SDS011;2943;48.012;10.968;2023-04-24T07:56:05;1.20;;;1.10;;
5833;SDS011;2943;48.012;10.968;2023-04-24T07:58:34;1.03;;;1.03;;
5833;SDS011;2943;48.012;10.968;2023-04-24T08:01:01;1.50;;;1.40;;
5833;SDS011;2943;48.012;10.968;2023-04-24T08:03:28;2.80;;;1.83;;
5833;SDS011;2943;48.012;10.968;2023-04-24T08:05:55;1.83;;;1.63;;
5833;SDS011;2943;48.012;10.968;2023-04-24T08:08:22;2.23;;;2.00;;
5833;SDS011;2943;48.012;10.968;2023-04-24T08:10:49;4.30;;;1.73;;
5833;SDS011;2943;48.012;10.968;2023-04-24T08:13:16;4.50;;;2.50;;
5833;SDS011;2943;48.012;10.968;2023-04-24T08:15:44;3.10;;;2.30;;
5833;SDS011;2943;48.012;10.968;2023-04-24T08:18:11;1.80;;;1.70;;
5833;SDS011;2943;48.012;10.968;2023-04-24T08:20:40;2.77;;;2.57;;
5833;SDS011;2943;48.012;10.968;2023-04-24T08:23:07;2.60;;;2.40;;
5833;SDS011;2943;48.012;10.968;2023-04-24T08:25:34;2.57;;;2.23;;
5833;SDS011;2943;48.012;10.968;2023-04-24T08:28:02;3.22;;;2.25;;
5833;SDS011;2943;48.012;10.968;2023-04-24T08:30:29;2.15;;;2.05;;
5833;SDS011;2943;48.012;10.968;2023-04-24T08:32:58;3.25;;;2.30;;
5833;SDS011;2943;48.012;10.968;2023-04-24T08:35:25;3.77;;;2.73;;
5833;SDS011;2943;48.012;10.968;2023-04-24T08:37:52;2.67;;;2.45;;
5833;SDS011;2943;48.012;10.968;2023-04-24T08:40:20;4.13;;;2.77;;
5833;SDS011;2943;48.012;10.968;2023-04-24T08:42:54;2.58;;;2.38;;
5833;SDS011;2943;48.012;10.968;2023-04-24T08:45:22;2.60;;;2.40;;
5833;SDS011;2943;48.012;10.968;2023-04-24T08:47:51;2.30;;;2.10;;
5833;SDS011;2943;48.012;10.968;2023-04-24T08:50:21;2.17;;;1.97;;
5833;SDS011;2943;48.012;10.968;2023-04-24T08:52:49;3.53;;;2.53;;
5833;SDS011;2943;48.012;10.968;2023-04-24T08:55:18;4.47;;;2.97;;
5833;SDS011;2943;48.012;10.968;2023-04-24T08:57:49;2.67;;;2.10;;
5833;SDS011;2943;48.012;10.968;2023-04-24T09:00:18;4.23;;;2.50;;
5833;SDS011;2943;48.012;10.968;2023-04-24T09:02:46;2.43;;;2.20;;
5833;SDS011;2943;48.012;10.968;2023-04-24T09:05:15;2.70;;;2.30;;
5833;SDS011;2943;48.012;10.968;2023-04-24T09:07:45;2.30;;;2.10;;
5833;SDS011;2943;48.012;10.968;2023-04-24T09:10:18;4.00;;;2.17;;
5833;SDS011;2943;48.012;10.968;2023-04-24T09:12:46;3.40;;;2.43;;
5833;SDS011;2943;48.012;10.968;2023-04-24T09:15:13;2.67;;;2.47;;
5833;SDS011;2943;48.012;10.968;2023-04-24T09:17:41;2.53;;;2.33;;
5833;SDS011;2943;48.012;10.968;2023-04-24T09:20:08;2.37;;;2.17;;
5833;SDS011;2943;48.012;10.968;2023-04-24T09:22:36;2.50;;;2.30;;
5833;SDS011;2943;48.012;10.968;2023-04-24T09:25:05;1.83;;;1.73;;
5833;SDS011;2943;48.012;10.968;2023-04-24T09:27:34;2.35;;;2.20;;
5833;SDS011;2943;48.012;10.968;2023-04-24T09:30:01;2.10;;;2.00;;
5833;SDS011;2943;48.012;10.968;2023-04-24T09:32:28;2.07;;;1.97;;
5833;SDS011;2943;48.012;10.968;2023-04-24T09:35:06;3.93;;;2.27;;
5833;SDS011;2943;48.012;10.968;2023-04-24T09:37:35;2.10;;;1.90;;
5833;SDS011;2943;48.012;10.968;2023-04-24T09:40:11;3.93;;;2.13;;
5833;SDS011;2943;48.012;10.968;2023-04-24T09:42:39;9.93;;;2.70;;
5833;SDS011;2943;48.012;10.968;2023-04-24T09:45:09;3.37;;;2.30;;
5833;SDS011;2943;48.012;10.968;2023-04-24T09:47:38;2.40;;;2.20;;
5833;SDS011;2943;48.012;10.968;2023-04-24T09:50:09;2.30;;;2.10;;
5833;SDS011;2943;48.012;10.968;2023-04-24T09:52:39;3.88;;;2.00;;
5833;SDS011;2943;48.012;10.968;2023-04-24T09:55:11;2.30;;;2.10;;
5833;SDS011;2943;48.012;10.968;2023-04-24T09:57:50;2.45;;;2.20;;
5833;SDS011;2943;48.012;10.968;2023-04-24T10:00:18;3.13;;;2.37;;
5833;SDS011;2943;48.012;10.968;2023-04-24T10:02:50;4.00;;;2.65;;
5833;SDS011;2943;48.012;10.968;2023-04-24T10:05:22;4.63;;;2.30;;
5833;SDS011;2943;48.012;10.968;2023-04-24T10:07:50;1.40;;;1.30;;
5833;SDS011;2943;48.012;10.968;2023-04-24T10:10:19;1.50;;;1.40;;
5833;SDS011;2943;48.012;10.968;2023-04-24T10:12:46;1.60;;;1.50;;
5833;SDS011;2943;48.012;10.968;2023-04-24T10:15:13;5.93;;;1.70;;
5833;SDS011;2943;48.012;10.968;2023-04-24T10:17:45;1.50;;;1.40;;
5833;SDS011;2943;48.012;10.968;2023-04-24T10:20:18;1.80;;;1.70;;
5833;SDS011;2943;48.012;10.968;2023-04-24T10:22:47;2.00;;;1.90;;
5833;SDS011;2943;48.012;10.968;2023-04-24T10:25:16;1.60;;;1.50;;
5833;SDS011;2943;48.012;10.968;2023-04-24T10:27:47;3.00;;;2.53;;
5833;SDS011;2943;48.012;10.968;2023-04-24T10:30:16;2.17;;;1.97;;
5833;SDS011;2943;48.012;10.968;2023-04-24T10:32:43;3.63;;;1.90;;
5833;SDS011;2943;48.012;10.968;2023-04-24T10:35:11;2.13;;;2.03;;
5833;SDS011;2943;48.012;10.968;2023-04-24T10:37:41;3.43;;;1.60;;
5833;SDS011;2943;48.012;10.968;2023-04-24T10:40:11;1.77;;;1.67;;
5833;SDS011;2943;48.012;10.968;2023-04-24T10:42:43;1.93;;;1.80;;
5833;SDS011;2943;48.012;10.968;2023-04-24T10:45:16;1.60;;;1.50;;
5833;SDS011;2943;48.012;10.968;2023-04-24T10:47:52;2.90;;;1.90;;
5833;SDS011;2943;48.012;10.968;2023-04-24T10:50:23;2.67;;;2.00;;
5833;SDS011;2943;48.012;10.968;2023-04-24T10:53:06;3.20;;;2.20;;
5833;SDS011;2943;48.012;10.968;2023-04-24T10:55:41;2.23;;;2.00;;
5833;SDS011;2943;48.012;10.968;2023-04-24T10:58:11;2.30;;;2.17;;
5833;SDS011;2943;48.012;10.968;2023-04-24T11:00:38;1.80;;;1.70;;
5833;SDS011;2943;48.012;10.968;2023-04-24T11:03:06;1.73;;;1.60;;
5833;SDS011;2943;48.012;10.968;2023-04-24T11:05:49;2.00;;;1.90;;
5833;SDS011;2943;48.012;10.968;2023-04-24T11:08:23;1.87;;;1.60;;
5833;SDS011;2943;48.012;10.968;2023-04-24T11:10:56;1.63;;;1.53;;
5833;SDS011;2943;48.012;10.968;2023-04-24T11:13:26;2.60;;;1.73;;
5833;SDS011;2943;48.012;10.968;2023-04-24T11:16:15;2.17;;;1.80;;
5833;SDS011;2943;48.012;10.968;2023-04-24T11:18:49;6.75;;;1.83;;
5833;SDS011;2943;48.012;10.968;2023-04-24T11:21:19;2.70;;;1.87;;
5833;SDS011;2943;48.012;10.968;2023-04-24T11:23:47;3.13;;;2.07;;
5833;SDS011;2943;48.012;10.968;2023-04-24T11:26:17;2.67;;;2.47;;
5833;SDS011;2943;48.012;10.968;2023-04-24T11:28:50;4.20;;;2.50;;
5833;SDS011;2943;48.012;10.968;2023-04-24T11:31:39;4.30;;;2.25;;
5833;SDS011;2943;48.012;10.968;2023-04-24T11:34:07;4.67;;;2.40;;
5833;SDS011;2943;48.012;10.968;2023-04-24T11:36:35;2.30;;;2.10;;
5833;SDS011;2943;48.012;10.968;2023-04-24T11:39:02;3.87;;;2.67;;
5833;SDS011;2943;48.012;10.968;2023-04-24T11:41:30;3.27;;;2.80;;
5833;SDS011;2943;48.012;10.968;2023-04-24T11:43:58;7.70;;;2.67;;
5833;SDS011;2943;48.012;10.968;2023-04-24T11:46:29;2.43;;;2.23;;
5833;SDS011;2943;48.012;10.968;2023-04-24T11:48:57;2.40;;;2.20;;
5833;SDS011;2943;48.012;10.968;2023-04-24T11:51:25;2.40;;;2.20;;
5833;SDS011;2943;48.012;10.968;2023-04-24T11:53:53;2.50;;;2.30;;
5833;SDS011;2943;48.012;10.968;2023-04-24T11:56:21;2.77;;;2.30;;
5833;SDS011;2943;48.012;10.968;2023-04-24T11:58:48;4.30;;;2.60;;
5833;SDS011;2943;48.012;10.968;2023-04-24T12:01:19;3.60;;;3.33;;
5833;SDS011;2943;48.012;10.968;2023-04-24T12:03:47;4.57;;;3.20;;
5833;SDS011;2943;48.012;10.968;2023-04-24T12:06:16;4.80;;;2.87;;
5833;SDS011;2943;48.012;10.968;2023-04-24T12:08:45;2.63;;;2.28;;
5833;SDS011;2943;48.012;10.968;2023-04-24T12:11:14;3.07;;;2.37;;
5833;SDS011;2943;48.012;10.968;2023-04-24T12:13:44;1.97;;;1.87;;
5833;SDS011;2943;48.012;10.968;2023-04-24T12:16:11;1.70;;;1.60;;
5833;SDS011;2943;48.012;10.968;2023-04-24T12:18:44;2.85;;;1.80;;
5833;SDS011;2943;48.012;10.968;2023-04-24T12:21:14;3.20;;;2.37;;
5833;SDS011;2943;48.012;10.968;2023-04-24T12:23:45;2.13;;;2.00;;
5833;SDS011;2943;48.012;10.968;2023-04-24T12:26:12;8.53;;;2.50;;
5833;SDS011;2943;48.012;10.968;2023-04-24T12:28:45;4.53;;;2.10;;
5833;SDS011;2943;48.012;10.968;2023-04-24T12:31:14;2.28;;;1.90;;
5833;SDS011;2943;48.012;10.968;2023-04-24T12:33:41;3.35;;;2.13;;
5833;SDS011;2943;48.012;10.968;2023-04-24T12:36:10;2.60;;;2.40;;
5833;SDS011;2943;48.012;10.968;2023-04-24T12:38:38;2.77;;;2.10;;
5833;SDS011;2943;48.012;10.968;2023-04-24T12:41:10;4.30;;;2.30;;
5833;SDS011;2943;48.012;10.968;2023-04-24T12:43:38;2.60;;;2.40;;
5833;SDS011;2943;48.012;10.968;2023-04-24T12:46:17;3.10;;;2.37;;
5833;SDS011;2943;48.012;10.968;2023-04-24T12:48:44;3.70;;;2.47;;
5833;SDS011;2943;48.012;10.968;2023-04-24T12:51:12;11.43;;;3.43;;
5833;SDS011;2943;48.012;10.968;2023-04-24T12:53:40;4.70;;;2.53;;
5833;SDS011;2943;48.012;10.968;2023-04-24T12:56:10;4.10;;;2.70;;
5833;SDS011;2943;48.012;10.968;2023-04-24T12:58:37;3.60;;;3.30;;
5833;SDS011;2943;48.012;10.968;2023-04-24T13:01:04;2.50;;;2.30;;
5833;SDS011;2943;48.012;10.968;2023-04-24T13:03:30;3.93;;;2.90;;
5833;SDS011;2943;48.012;10.968;2023-04-24T13:05:57;5.63;;;2.93;;
5833;SDS011;2943;48.012;10.968;2023-04-24T13:08:25;6.20;;;3.47;;
5833;SDS011;2943;48.012;10.968;2023-04-24T13:10:52;2.65;;;2.42;;
5833;SDS011;2943;48.012;10.968;2023-04-24T13:13:19;4.03;;;2.63;;
5833;SDS011;2943;48.012;10.968;2023-04-24T13:15:46;3.97;;;2.67;;
5833;SDS011;2943;48.012;10.968;2023-04-24T13:18:13;8.03;;;3.00;;
5833;SDS011;2943;48.012;10.968;2023-04-24T13:20:40;3.73;;;2.83;;
5833;SDS011;2943;48.012;10.968;2023-04-24T13:23:07;3.50;;;2.40;;
5833;SDS011;2943;48.012;10.968;2023-04-24T13:25:36;4.93;;;2.70;;
5833;SDS011;2943;48.012;10.968;2023-04-24T13:28:14;4.87;;;2.53;;
5833;SDS011;2943;48.012;10.968;2023-04-24T13:30:42;3.27;;;2.43;;
5833;SDS011;2943;48.012;10.968;2023-04-24T13:33:11;2.50;;;2.23;;
5833;SDS011;2943;48.012;10.968;2023-04-24T13:35:37;2.80;;;2.43;;
5833;SDS011;2943;48.012;10.968;2023-04-24T13:38:04;3.20;;;2.37;;
5833;SDS011;2943;48.012;10.968;2023-04-24T13:40:32;4.97;;;2.20;;
5833;SDS011;2943;48.012;10.968;2023-04-24T13:43:00;4.67;;;2.30;;
5833;SDS011;2943;48.012;10.968;2023-04-24T13:45:27;2.67;;;2.47;;
5833;SDS011;2943;48.012;10.968;2023-04-24T13:47:54;2.70;;;2.07;;
5833;SDS011;2943;48.012;10.968;2023-04-24T13:50:22;3.80;;;2.47;;
5833;SDS011;2943;48.012;10.968;2023-04-24T13:52:48;2.63;;;2.33;;
5833;SDS011;2943;48.012;10.968;2023-04-24T13:55:15;2.40;;;2.20;;
5833;SDS011;2943;48.012;10.968;2023-04-24T13:57:42;4.20;;;2.20;;
5833;SDS011;2943;48.012;10.968;2023-04-24T14:00:11;2.20;;;2.00;;
5833;SDS011;2943;48.012;10.968;2023-04-24T14:02:39;4.27;;;2.33;;
5833;SDS011;2943;48.012;10.968;2023-04-24T14:05:06;3.87;;;2.07;;
5833;SDS011;2943;48.012;10.968;2023-04-24T14:07:35;3.10;;;2.90;;
5833;SDS011;2943;48.012;10.968;2023-04-24T14:10:02;3.30;;;2.47;;
5833;SDS011;2943;48.012;10.968;2023-04-24T14:12:30;2.13;;;2.00;;
5833;SDS011;2943;48.012;10.968;2023-04-24T14:14:57;6.73;;;2.60;;
5833;SDS011;2943;48.012;10.968;2023-04-24T14:17:25;2.90;;;2.03;;
5833;SDS011;2943;48.012;10.968;2023-04-24T14:19:52;2.93;;;2.50;;
5833;SDS011;2943;48.012;10.968;2023-04-24T14:22:21;5.00;;;2.60;;
5833;SDS011;2943;48.012;10.968;2023-04-24T14:24:48;3.93;;;2.70;;
5833;SDS011;2943;48.012;10.968;2023-04-24T14:27:15;2.87;;;2.40;;
5833;SDS011;2943;48.012;10.968;2023-04-24T14:29:42;3.10;;;2.40;;
5833;SDS011;2943;48.012;10.968;2023-04-24T14:32:10;3.17;;;2.37;;
5833;SDS011;2943;48.012;10.968;2023-04-24T14:34:41;3.87;;;2.33;;
5833;SDS011;2943;48.012;10.968;2023-04-24T14:37:08;2.67;;;2.47;;
5833;SDS011;2943;48.012;10.968;2023-04-24T14:39:35;2.70;;;2.20;;
5833;SDS011;2943;48.012;10.968;2023-04-24T14:42:02;6.70;;;2.00;;
5833;SDS011;2943;48.012;10.968;2023-04-24T14:44:29;3.67;;;2.35;;
5833;SDS011;2943;48.012;10.968;2023-04-24T14:46:58;4.72;;;2.88;;
5833;SDS011;2943;48.012;10.968;2023-04-24T14:49:25;3.60;;;2.30;;
5833;SDS011;2943;48.012;10.968;2023-04-24T14:51:54;2.70;;;1.97;;
5833;SDS011;2943;48.012;10.968;2023-04-24T14:54:20;3.10;;;1.90;;
5833;SDS011;2943;48.012;10.968;2023-04-24T14:56:48;2.47;;;2.28;;
5833;SDS011;2943;48.012;10.968;2023-04-24T14:59:15;3.17;;;2.20;;
5833;SDS011;2943;48.012;10.968;2023-04-24T15:01:42;5.20;;;2.00;;
5833;SDS011;2943;48.012;10.968;2023-04-24T15:04:09;3.77;;;2.10;;
5833;SDS011;2943;48.012;10.968;2023-04-24T15:06:36;3.83;;;2.00;;
5833;SDS011;2943;48.012;10.968;2023-04-24T15:09:05;7.33;;;2.50;;